createdAt,value
2019-05-18T00:01:45.285Z,14.65
2019-05-18T00:04:14.045Z,14.55
2019-05-18T00:06:42.819Z,16.15
2019-05-18T00:09:11.945Z,15.63
2019-05-18T00:11:40.760Z,15.75
2019-05-18T00:14:09.588Z,16.87
2019-05-18T00:16:38.287Z,15.78
2019-05-18T00:19:07.059Z,16.65
2019-05-18T00:21:35.845Z,16.30
2019-05-18T00:24:04.614Z,16.07
2019-05-18T00:26:33.561Z,16.48
2019-05-18T00:29:02.360Z,15.45
2019-05-18T00:31:31.219Z,16.25
2019-05-18T00:33:59.954Z,16.27
2019-05-18T00:36:29.129Z,16.27
2019-05-18T00:38:57.943Z,17.45
2019-05-18T00:41:26.740Z,17.05
2019-05-18T00:43:55.607Z,16.67
2019-05-18T00:46:24.476Z,15.93
2019-05-18T00:48:53.378Z,16.32
2019-05-18T00:51:23.449Z,16.20
2019-05-18T00:53:52.307Z,16.67
2019-05-18T00:56:21.233Z,16.37
2019-05-18T00:58:50.139Z,16.67
2019-05-18T01:01:18.982Z,15.98
2019-05-18T01:03:47.702Z,17.25
2019-05-18T01:06:16.684Z,16.00
2019-05-18T01:08:45.527Z,15.32
2019-05-18T01:11:14.330Z,17.37
2019-05-18T01:13:43.207Z,16.37
2019-05-18T01:16:12.080Z,16.42
2019-05-18T01:18:40.810Z,15.93
2019-05-18T01:21:09.692Z,16.35
2019-05-18T01:23:38.601Z,16.70
2019-05-18T01:26:07.375Z,17.10
2019-05-18T01:28:36.143Z,18.27
2019-05-18T01:31:04.911Z,16.82
2019-05-18T01:33:33.782Z,16.87
2019-05-18T01:36:02.550Z,17.25
2019-05-18T01:38:31.457Z,16.80
2019-05-18T01:41:00.199Z,18.02
2019-05-18T01:43:28.990Z,16.93
2019-05-18T01:45:57.747Z,17.30
2019-05-18T01:48:26.460Z,16.82
2019-05-18T01:50:55.484Z,17.10
2019-05-18T01:53:24.225Z,17.77
2019-05-18T01:55:53.096Z,17.07
2019-05-18T01:58:21.853Z,17.62
2019-05-18T02:00:50.661Z,17.02
2019-05-18T02:03:19.449Z,16.60
2019-05-18T02:05:48.268Z,17.30
2019-05-18T02:08:16.977Z,17.25
2019-05-18T02:10:45.913Z,17.52
2019-05-18T02:13:14.843Z,17.57
2019-05-18T02:15:43.594Z,16.75
2019-05-18T02:18:12.426Z,16.73
2019-05-18T02:20:41.173Z,18.45
2019-05-18T02:23:09.916Z,17.17
2019-05-18T02:25:38.757Z,17.75
2019-05-18T02:28:07.582Z,19.15
2019-05-18T02:30:36.453Z,17.37
2019-05-18T02:33:05.218Z,18.48
2019-05-18T02:35:34.140Z,18.50
2019-05-18T02:38:16.174Z,18.25
2019-05-18T02:40:45.259Z,17.92
2019-05-18T02:43:14.070Z,18.75
2019-05-18T02:45:42.956Z,18.35
2019-05-18T02:48:11.713Z,18.57
2019-05-18T02:50:40.619Z,18.55
2019-05-18T02:53:09.447Z,16.87
2019-05-18T02:55:38.365Z,18.15
2019-05-18T02:58:07.284Z,17.85
2019-05-18T03:00:36.160Z,19.05
2019-05-18T03:03:05.004Z,18.42
2019-05-18T03:05:33.729Z,18.37
2019-05-18T03:08:02.506Z,18.95
2019-05-18T03:10:31.431Z,18.27
2019-05-18T03:13:00.250Z,17.87
2019-05-18T03:15:29.025Z,18.62
2019-05-18T03:17:57.919Z,20.02
2019-05-18T03:20:26.821Z,18.70
2019-05-18T03:22:55.557Z,19.52
2019-05-18T03:25:24.369Z,19.20
2019-05-18T03:27:53.132Z,18.60
2019-05-18T03:30:22.022Z,18.65
2019-05-18T03:32:50.849Z,19.70
2019-05-18T03:35:19.675Z,18.75
2019-05-18T03:37:48.433Z,19.55
2019-05-18T03:40:17.219Z,19.48
2019-05-18T03:42:45.966Z,19.73
2019-05-18T03:45:14.868Z,18.90
2019-05-18T03:47:43.675Z,19.23
2019-05-18T03:50:12.490Z,18.20
2019-05-18T03:52:41.451Z,19.30
2019-05-18T03:55:10.273Z,18.45
2019-05-18T03:57:39.194Z,19.73
2019-05-18T04:00:08.125Z,19.62
2019-05-18T04:02:37.077Z,18.85
2019-05-18T04:05:05.816Z,18.80
2019-05-18T04:07:34.696Z,19.87
2019-05-18T04:10:03.586Z,19.17
2019-05-18T04:12:32.495Z,20.10
2019-05-18T04:15:01.297Z,19.45
2019-05-18T04:17:30.180Z,19.32
2019-05-18T04:19:59.015Z,20.17
2019-05-18T04:22:28.034Z,20.65
2019-05-18T04:24:56.934Z,19.62
2019-05-18T04:27:27.004Z,19.32
2019-05-18T04:29:55.672Z,20.32
2019-05-18T04:32:24.451Z,19.77
2019-05-18T04:34:53.168Z,19.60
2019-05-18T04:37:22.041Z,19.12
2019-05-18T04:39:50.846Z,20.27
2019-05-18T04:42:19.589Z,20.52
2019-05-18T04:44:48.286Z,18.92
2019-05-18T04:47:17.131Z,19.60
2019-05-18T04:50:03.549Z,20.72
2019-05-18T04:52:16.363Z,20.27
2019-05-18T04:54:45.062Z,19.23
2019-05-18T04:57:13.844Z,19.32
2019-05-18T04:59:42.540Z,19.98
2019-05-18T05:02:11.397Z,20.20
2019-05-18T05:04:40.182Z,20.40
2019-05-18T05:07:08.868Z,19.23
2019-05-18T05:09:37.625Z,19.45
2019-05-18T05:12:06.384Z,19.50
2019-05-18T05:14:35.178Z,19.77
2019-05-18T05:17:04.011Z,19.07
2019-05-18T05:19:32.746Z,23.92
2019-05-18T05:22:01.429Z,20.00
2019-05-18T05:24:30.174Z,19.50
2019-05-18T05:26:58.888Z,23.47
2019-05-18T05:29:28.336Z,19.80
2019-05-18T05:31:57.051Z,22.22
2019-05-18T05:34:25.841Z,18.65
2019-05-18T05:36:54.591Z,19.25
2019-05-18T05:39:23.317Z,20.40
2019-05-18T05:41:52.059Z,19.65
2019-05-18T05:44:20.741Z,18.73
2019-05-18T05:46:49.466Z,20.23
2019-05-18T05:49:18.143Z,20.15
2019-05-18T05:51:46.985Z,19.57
2019-05-18T05:54:15.688Z,19.40
2019-05-18T05:56:44.424Z,19.60
2019-05-18T05:59:13.126Z,19.40
2019-05-18T06:01:42.213Z,18.35
2019-05-18T06:04:10.966Z,18.07
2019-05-18T06:06:39.679Z,19.85
2019-05-18T06:09:08.630Z,19.77
2019-05-18T06:11:37.359Z,18.10
2019-05-18T06:14:06.084Z,19.98
2019-05-18T06:16:34.803Z,18.05
2019-05-18T06:19:03.674Z,20.17
2019-05-18T06:21:32.563Z,18.48
2019-05-18T06:24:01.362Z,18.75
2019-05-18T06:26:30.540Z,18.32
2019-05-18T06:28:59.489Z,19.70
2019-05-18T06:31:28.206Z,18.62
2019-05-18T06:33:56.905Z,18.32
2019-05-18T06:36:25.606Z,18.12
2019-05-18T06:38:54.317Z,17.70
2019-05-18T06:41:23.193Z,18.87
2019-05-18T06:43:52.017Z,18.92
2019-05-18T06:46:20.827Z,18.30
2019-05-18T06:48:49.630Z,17.32
2019-05-18T06:51:18.389Z,17.82
2019-05-18T06:53:47.107Z,18.25
2019-05-18T06:56:15.814Z,17.02
2019-05-18T06:58:44.545Z,19.20
2019-05-18T07:01:13.398Z,17.57
2019-05-18T07:03:44.966Z,17.07
2019-05-18T07:06:12.670Z,16.30
2019-05-18T07:08:41.558Z,17.10
2019-05-18T07:11:10.431Z,16.32
2019-05-18T07:13:39.167Z,16.65
2019-05-18T07:16:07.885Z,16.82
2019-05-18T07:18:36.677Z,16.10
2019-05-18T07:21:05.369Z,16.32
2019-05-18T07:23:34.258Z,15.75
2019-05-18T07:26:03.241Z,15.35
2019-05-18T07:28:31.990Z,16.57
2019-05-18T07:31:00.735Z,16.70
2019-05-18T07:33:38.067Z,15.63
2019-05-18T07:36:09.535Z,16.35
2019-05-18T07:38:38.398Z,15.75
2019-05-18T07:41:07.145Z,15.35
2019-05-18T07:43:35.893Z,16.07
2019-05-18T07:46:04.621Z,15.23
2019-05-18T07:48:33.353Z,15.23
2019-05-18T07:51:04.259Z,14.68
2019-05-18T07:53:33.005Z,13.32
2019-05-18T07:56:01.782Z,13.65
2019-05-18T07:58:30.574Z,13.58
2019-05-18T08:00:59.550Z,87.80
2019-05-18T08:03:28.243Z,13.70
2019-05-18T08:05:56.966Z,12.75
2019-05-18T08:08:25.785Z,13.03
2019-05-18T08:10:54.539Z,14.25
2019-05-18T08:13:23.313Z,14.40
2019-05-18T08:15:52.099Z,14.53
2019-05-18T08:18:20.928Z,12.58
2019-05-18T08:20:49.684Z,13.62
2019-05-18T08:23:19.367Z,13.83
2019-05-18T08:25:48.093Z,13.28
2019-05-18T08:30:18.771Z,13.00
2019-05-18T08:31:08.024Z,13.78
2019-05-18T08:33:36.799Z,13.22
2019-05-18T08:36:25.194Z,27.27
2019-05-18T08:38:53.905Z,12.55
2019-05-18T08:41:43.252Z,11.45
2019-05-18T08:44:12.083Z,11.15
2019-05-18T08:46:40.786Z,10.28
2019-05-18T08:49:09.528Z,10.43
2019-05-18T08:51:38.269Z,9.60
2019-05-18T08:54:07.155Z,10.18
2019-05-18T08:56:35.845Z,9.23
2019-05-18T08:59:05.012Z,9.23
2019-05-18T09:01:33.810Z,8.80
2019-05-18T09:04:02.555Z,9.68
2019-05-18T09:06:31.320Z,10.93
2019-05-18T09:09:00.081Z,10.10
2019-05-18T09:11:28.881Z,9.25
2019-05-18T09:13:57.678Z,9.35
2019-05-18T09:16:26.431Z,10.32
2019-05-18T09:18:55.125Z,8.88
2019-05-18T09:21:23.961Z,9.50
2019-05-18T09:23:52.676Z,8.98
2019-05-18T09:26:21.386Z,8.28
2019-05-18T09:28:50.119Z,7.47
2019-05-18T09:31:18.807Z,7.00
2019-05-18T09:33:47.685Z,7.60
2019-05-18T09:36:16.525Z,7.78
2019-05-18T09:38:45.673Z,7.67
2019-05-18T09:41:14.416Z,7.75
2019-05-18T09:43:43.179Z,8.35
2019-05-18T09:46:11.905Z,9.73
2019-05-18T09:48:40.809Z,8.85
2019-05-18T09:51:09.520Z,8.50
2019-05-18T09:53:50.694Z,7.80
2019-05-18T09:56:08.810Z,10.00
2019-05-18T09:58:37.618Z,8.95
2019-05-18T10:01:06.371Z,6.95
2019-05-18T10:03:35.053Z,9.28
2019-05-18T10:06:03.786Z,8.68
2019-05-18T10:08:34.179Z,7.75
2019-05-18T10:11:02.955Z,8.28
2019-05-18T10:13:31.672Z,8.73
2019-05-18T10:16:00.524Z,8.58
2019-05-18T10:18:29.279Z,9.58
2019-05-18T10:20:57.986Z,8.40
2019-05-18T10:23:26.782Z,8.33
2019-05-18T10:25:55.459Z,8.83
2019-05-18T10:28:24.230Z,7.80
2019-05-18T10:30:53.022Z,7.67
2019-05-18T10:33:21.754Z,7.03
2019-05-18T10:35:54.925Z,6.53
2019-05-18T10:38:20.955Z,6.67
2019-05-18T10:40:49.764Z,7.25
2019-05-18T10:43:18.508Z,7.53
2019-05-18T10:45:47.313Z,8.55
2019-05-18T10:48:16.024Z,9.28
2019-05-18T10:50:44.876Z,9.03
2019-05-18T10:53:27.898Z,8.45
2019-05-18T10:55:44.297Z,9.08
2019-05-18T10:58:13.092Z,8.78
2019-05-18T11:00:41.901Z,8.28
2019-05-18T11:03:10.652Z,9.08
2019-05-18T11:05:39.433Z,9.28
2019-05-18T11:08:08.159Z,8.25
2019-05-18T11:10:36.911Z,8.28
2019-05-18T11:13:05.762Z,9.50
2019-05-18T11:15:34.492Z,8.18
2019-05-18T11:18:03.662Z,8.28
2019-05-18T11:20:33.051Z,8.38
2019-05-18T11:23:06.703Z,7.50
2019-05-18T11:25:36.502Z,7.35
2019-05-18T11:28:06.958Z,7.20
2019-05-18T11:30:41.504Z,6.97
2019-05-18T11:33:10.919Z,7.00
2019-05-18T11:35:40.542Z,6.90
2019-05-18T11:38:10.442Z,7.33
2019-05-18T11:40:39.135Z,6.58
2019-05-18T11:43:08.245Z,6.58
2019-05-18T11:45:37.015Z,6.67
2019-05-18T11:48:05.730Z,6.95
2019-05-18T11:50:34.441Z,7.92
2019-05-18T11:53:03.514Z,7.90
2019-05-18T11:55:32.246Z,7.80
2019-05-18T11:58:01.327Z,7.50
2019-05-18T12:00:30.134Z,7.37
2019-05-18T12:02:58.893Z,6.75
2019-05-18T12:05:27.676Z,6.70
2019-05-18T12:07:56.373Z,6.28
2019-05-18T12:10:25.226Z,6.00
2019-05-18T12:12:53.957Z,5.85
2019-05-18T12:15:22.799Z,5.55
2019-05-18T12:17:51.576Z,5.28
2019-05-18T12:20:20.374Z,4.80
2019-05-18T12:22:49.127Z,4.20
2019-05-18T12:25:17.978Z,4.60
2019-05-18T12:27:46.761Z,4.22
2019-05-18T12:30:15.557Z,4.28
2019-05-18T12:32:44.296Z,3.90
2019-05-18T12:35:33.258Z,3.98
2019-05-18T12:38:01.948Z,3.60
2019-05-18T12:40:30.714Z,3.77
2019-05-18T12:43:04.774Z,3.15
2019-05-18T12:45:33.671Z,3.40
2019-05-18T12:48:04.287Z,2.85
2019-05-18T12:57:12.297Z,3.67
2019-05-18T13:00:17.553Z,2.50
2019-05-18T13:02:33.643Z,3.50
2019-05-18T13:05:02.340Z,3.30
2019-05-18T13:07:47.304Z,2.85
2019-05-18T13:10:35.731Z,2.80
2019-05-18T13:13:09.616Z,2.65
2019-05-18T13:16:01.956Z,3.10
2019-05-18T13:18:49.149Z,2.58
2019-05-18T13:21:17.885Z,2.02
2019-05-18T13:23:47.651Z,2.35
2019-05-18T13:26:51.627Z,3.10
2019-05-18T13:29:41.230Z,2.45
2019-05-18T13:32:22.595Z,2.77
2019-05-18T13:34:56.334Z,2.58
2019-05-18T13:37:27.786Z,2.80
2019-05-18T13:39:56.499Z,2.52
2019-05-18T13:42:25.205Z,2.50
2019-05-18T13:44:53.918Z,2.70
2019-05-18T13:47:22.624Z,2.52
2019-05-18T13:49:51.434Z,2.95
2019-05-18T13:52:20.176Z,3.20
2019-05-18T13:55:02.884Z,3.12
2019-05-18T13:57:19.824Z,3.17
2019-05-18T13:59:48.576Z,2.67
2019-05-18T14:02:17.340Z,2.35
2019-05-18T14:04:46.105Z,2.12
2019-05-18T14:07:14.976Z,2.75
2019-05-18T14:09:43.746Z,2.77
2019-05-18T14:12:12.577Z,2.37
2019-05-18T14:14:41.326Z,2.50
2019-05-18T14:17:10.084Z,2.80
2019-05-18T14:19:38.907Z,2.22
2019-05-18T14:22:07.721Z,2.40
2019-05-18T14:24:36.467Z,2.52
2019-05-18T14:27:05.217Z,2.30
2019-05-18T14:29:34.047Z,2.85
2019-05-18T14:32:02.862Z,2.80
2019-05-18T14:34:31.552Z,2.95
2019-05-18T14:37:00.329Z,3.10
2019-05-18T14:39:29.091Z,2.60
2019-05-18T14:41:57.825Z,2.58
2019-05-18T14:44:26.569Z,2.45
2019-05-18T14:46:55.339Z,2.22
2019-05-18T14:49:24.082Z,2.65
2019-05-18T14:51:52.894Z,2.35
2019-05-18T14:54:25.282Z,2.75
2019-05-18T14:56:52.075Z,2.33
2019-05-18T14:59:20.833Z,2.33
2019-05-18T15:01:49.688Z,2.72
2019-05-18T15:04:18.486Z,2.35
2019-05-18T15:06:47.308Z,2.85
2019-05-18T15:09:16.085Z,2.62
2019-05-18T15:11:44.767Z,2.85
2019-05-18T15:14:13.539Z,3.05
2019-05-18T15:16:42.315Z,2.60
2019-05-18T15:19:11.210Z,2.40
2019-05-18T15:21:40.047Z,2.95
2019-05-18T15:24:08.971Z,2.50
2019-05-18T15:26:37.686Z,2.52
2019-05-18T15:29:06.422Z,2.62
2019-05-18T15:31:35.152Z,2.27
2019-05-18T15:34:04.010Z,2.30
2019-05-18T15:36:32.798Z,2.40
2019-05-18T15:39:01.578Z,2.50
2019-05-18T15:41:30.460Z,2.62
2019-05-18T15:43:59.223Z,3.08
2019-05-18T15:46:27.983Z,3.20
2019-05-18T15:48:56.803Z,2.70
2019-05-18T15:51:25.577Z,2.77
2019-05-18T15:53:54.435Z,2.80
2019-05-18T15:56:23.151Z,2.50
2019-05-18T15:58:51.999Z,2.70
2019-05-18T16:01:20.720Z,2.40
2019-05-18T16:03:49.623Z,3.05
2019-05-18T16:06:18.384Z,2.67
2019-05-18T16:08:47.103Z,3.30
2019-05-18T16:11:15.907Z,3.87
2019-05-18T16:13:44.756Z,3.40
2019-05-18T16:16:13.625Z,2.40
2019-05-18T16:18:42.415Z,2.37
2019-05-18T16:21:11.463Z,2.70
2019-05-18T16:23:40.189Z,2.60
2019-05-18T16:26:20.667Z,2.50
2019-05-18T16:28:39.657Z,2.40
2019-05-18T16:31:08.641Z,2.70
2019-05-18T16:33:37.447Z,2.85
2019-05-18T16:36:06.408Z,2.90
2019-05-18T16:38:35.265Z,2.80
2019-05-18T16:41:04.363Z,2.95
2019-05-18T16:43:36.435Z,2.50
2019-05-18T16:46:05.316Z,3.00
2019-05-18T16:48:34.179Z,2.50
2019-05-18T16:51:03.030Z,2.92
2019-05-18T16:54:05.522Z,2.40
2019-05-18T16:57:16.053Z,2.30
2019-05-18T17:00:35.959Z,2.77
2019-05-18T17:03:05.154Z,2.70
2019-05-18T17:05:34.170Z,2.30
2019-05-18T17:08:02.945Z,2.50
2019-05-18T17:10:32.025Z,2.60
2019-05-18T17:13:00.951Z,2.75
2019-05-18T17:15:30.814Z,2.67
2019-05-18T17:17:59.737Z,3.12
2019-05-18T17:20:28.592Z,2.67
2019-05-18T17:22:57.399Z,2.75
2019-05-18T17:25:26.277Z,3.05
2019-05-18T17:27:55.524Z,2.83
2019-05-18T17:30:24.402Z,2.60
2019-05-18T17:32:53.252Z,3.85
2019-05-18T17:35:22.321Z,2.65
2019-05-18T17:37:51.232Z,3.35
2019-05-18T17:40:20.085Z,3.10
2019-05-18T17:42:49.130Z,4.00
2019-05-18T17:45:18.072Z,3.90
2019-05-18T17:47:47.219Z,3.90
2019-05-18T17:50:17.156Z,3.42
2019-05-18T17:52:45.992Z,3.67
2019-05-18T17:55:16.441Z,3.60
2019-05-18T17:57:48.863Z,3.60
2019-05-18T18:00:17.629Z,3.87
2019-05-18T18:03:05.998Z,3.40
2019-05-18T18:05:35.231Z,3.70
2019-05-18T18:08:04.324Z,4.15
2019-05-18T18:10:33.388Z,3.20
2019-05-18T18:13:09.507Z,3.20
2019-05-18T18:15:39.012Z,3.90
2019-05-18T18:18:07.931Z,3.08
2019-05-18T18:20:37.031Z,3.47
2019-05-18T18:23:05.927Z,4.37
2019-05-18T18:25:35.089Z,3.60
2019-05-18T18:28:05.216Z,4.47
2019-05-18T18:30:34.124Z,3.90
2019-05-18T18:33:02.894Z,3.95
2019-05-18T18:35:31.936Z,3.55
2019-05-18T18:38:00.802Z,3.70
2019-05-18T18:40:32.601Z,3.83
2019-05-18T18:43:03.179Z,3.75
2019-05-18T18:45:36.947Z,3.70
2019-05-18T18:48:05.966Z,3.80
2019-05-18T18:50:35.313Z,4.25
2019-05-18T18:53:04.740Z,3.80
2019-05-18T18:55:34.067Z,3.87
2019-05-18T18:58:05.599Z,4.03
2019-05-18T19:00:34.763Z,4.45
2019-05-18T19:03:05.476Z,4.85
2019-05-18T19:05:34.376Z,4.58
2019-05-18T19:08:06.194Z,4.95
2019-05-18T19:10:35.463Z,4.95
2019-05-18T19:13:06.481Z,5.22
2019-05-18T19:15:35.874Z,4.92
2019-05-18T19:18:04.734Z,4.67
2019-05-18T19:20:33.623Z,4.85
2019-05-18T19:23:02.692Z,5.40
2019-05-18T19:25:31.655Z,5.22
2019-05-18T19:28:00.610Z,4.78
2019-05-18T19:30:32.515Z,5.58
2019-05-18T19:33:04.360Z,5.20
2019-05-18T19:35:33.869Z,4.80
2019-05-18T19:38:04.130Z,4.97
2019-05-18T19:40:33.376Z,4.80
2019-05-18T19:43:02.720Z,5.00
2019-05-18T19:45:31.580Z,4.67
2019-05-18T19:48:00.932Z,5.08
2019-05-18T19:50:29.769Z,5.17
2019-05-18T19:52:58.855Z,5.00
2019-05-18T19:55:27.748Z,5.25
2019-05-18T19:58:08.106Z,6.15
2019-05-18T20:00:27.795Z,6.90
2019-05-18T20:03:02.732Z,5.90
2019-05-18T20:05:31.689Z,5.65
2019-05-18T20:08:02.507Z,5.35
2019-05-18T20:10:31.348Z,5.45
2019-05-18T20:13:03.508Z,5.78
2019-05-18T20:15:32.338Z,6.15
2019-05-18T20:18:01.268Z,6.15
2019-05-18T20:20:30.228Z,6.22
2019-05-18T20:22:59.057Z,6.30
2019-05-18T20:25:27.867Z,6.50
2019-05-18T20:27:56.878Z,7.12
2019-05-18T20:30:25.943Z,6.58
2019-05-18T20:32:54.871Z,6.97
2019-05-18T20:35:25.755Z,7.22
2019-05-18T20:37:54.512Z,7.37
2019-05-18T20:40:23.524Z,7.33
2019-05-18T20:42:52.362Z,7.33
2019-05-18T20:45:21.377Z,6.60
2019-05-18T20:47:50.556Z,7.40
2019-05-18T20:50:19.416Z,7.58
2019-05-18T20:52:48.389Z,7.85
2019-05-18T20:55:17.532Z,7.15
2019-05-18T20:57:46.505Z,7.90
2019-05-18T21:00:15.488Z,15.38
2019-05-18T21:02:44.469Z,9.28
2019-05-18T21:05:13.531Z,24.98
2019-05-18T21:07:45.402Z,10.88
2019-05-18T21:10:14.252Z,11.43
2019-05-18T21:12:42.961Z,9.50
2019-05-18T21:15:11.830Z,8.00
2019-05-18T21:17:40.680Z,8.68
2019-05-18T21:20:10.143Z,8.43
2019-05-18T21:22:38.888Z,8.78
2019-05-18T21:25:07.786Z,10.68
2019-05-18T21:27:36.671Z,30.85
2019-05-18T21:30:05.716Z,9.33
2019-05-18T21:32:34.495Z,8.80
2019-05-18T21:35:03.416Z,8.58
2019-05-18T21:37:32.262Z,9.43
2019-05-18T21:40:01.183Z,9.48
2019-05-18T21:42:30.262Z,9.05
2019-05-18T21:44:59.051Z,9.88
2019-05-18T21:47:28.117Z,9.18
2019-05-18T21:49:56.971Z,8.98
2019-05-18T21:52:25.773Z,9.08
2019-05-18T21:54:54.795Z,9.88
2019-05-18T21:57:23.759Z,9.93
2019-05-18T21:59:53.569Z,10.68
2019-05-18T22:02:27.301Z,9.48
2019-05-18T22:04:56.280Z,10.03
2019-05-18T22:07:26.139Z,10.40
2019-05-18T22:09:55.382Z,11.12
2019-05-18T22:12:27.304Z,10.50
2019-05-18T22:14:56.332Z,10.45
2019-05-18T22:17:25.473Z,9.95
2019-05-18T22:19:54.789Z,10.05
2019-05-18T22:22:24.935Z,9.98
2019-05-18T22:24:54.541Z,10.82
2019-05-18T22:27:24.058Z,11.25
2019-05-18T22:29:53.085Z,10.98
2019-05-18T22:32:21.819Z,12.00
2019-05-18T22:34:50.549Z,11.78
2019-05-18T22:37:19.344Z,11.75
2019-05-18T22:39:48.090Z,12.45
2019-05-18T22:42:16.857Z,12.00
2019-05-18T22:44:45.701Z,11.50
2019-05-18T22:47:14.565Z,12.23
2019-05-18T22:49:43.309Z,11.35
2019-05-18T22:52:12.062Z,12.18
2019-05-18T22:54:40.884Z,12.20
2019-05-18T22:57:09.684Z,12.40
2019-05-18T22:59:38.388Z,12.37
2019-05-18T23:02:07.104Z,11.78
2019-05-18T23:04:36.048Z,12.75
2019-05-18T23:07:05.124Z,12.13
2019-05-18T23:09:33.844Z,12.75
2019-05-18T23:12:02.764Z,12.88
2019-05-18T23:14:31.561Z,12.30
2019-05-18T23:17:00.387Z,18.32
2019-05-18T23:19:29.135Z,16.87
2019-05-18T23:21:57.847Z,16.07
2019-05-18T23:24:26.573Z,15.58
2019-05-18T23:26:55.337Z,16.02
2019-05-18T23:29:24.169Z,15.53
2019-05-18T23:31:53.743Z,15.32
2019-05-18T23:34:22.482Z,15.75
2019-05-18T23:36:51.182Z,15.25
2019-05-18T23:39:20.026Z,13.50
2019-05-18T23:41:48.754Z,14.78
2019-05-18T23:44:17.511Z,15.15
2019-05-18T23:46:46.389Z,14.68
2019-05-18T23:49:15.155Z,14.13
2019-05-18T23:51:43.888Z,15.32
2019-05-18T23:54:12.914Z,15.88
2019-05-18T23:56:41.622Z,14.83
2019-05-18T23:59:10.423Z,15.93
